sensor_id;sensor_type;location;lat;lon;timestamp;pressure;altitude;pressure_sealevel;temperature;humidity
17855;BME280;9053;53.358;6.382;2022-08-07T00:02:11;102686.72;;;15.73;87.02
17855;BME280;9053;53.358;6.382;2022-08-07T00:05:01;102685.66;;;15.70;87.02
17855;BME280;9053;53.358;6.382;2022-08-07T00:07:33;102683.81;;;15.69;87.23
17855;BME280;9053;53.358;6.382;2022-08-07T00:10:07;102681.94;;;15.66;87.11
17855;BME280;9053;53.358;6.382;2022-08-07T00:12:53;102685.38;;;15.64;87.19
17855;BME280;9053;53.358;6.382;2022-08-07T00:15:27;102679.94;;;15.61;87.17
17855;BME280;9053;53.358;6.382;2022-08-07T00:18:12;102678.97;;;15.58;87.33
17855;BME280;9053;53.358;6.382;2022-08-07T00:20:45;102681.53;;;15.57;87.39
17855;BME280;9053;53.358;6.382;2022-08-07T00:23:17;102670.88;;;15.55;87.52
17855;BME280;9053;53.358;6.382;2022-08-07T00:25:47;102672.56;;;15.53;87.69
17855;BME280;9053;53.358;6.382;2022-08-07T00:28:24;102675.09;;;15.50;87.77
17855;BME280;9053;53.358;6.382;2022-08-07T00:31:00;102666.72;;;15.41;87.76
17855;BME280;9053;53.358;6.382;2022-08-07T00:33:38;102672.13;;;15.43;87.85
17855;BME280;9053;53.358;6.382;2022-08-07T00:36:09;102678.19;;;15.40;87.95
17855;BME280;9053;53.358;6.382;2022-08-07T00:38:41;102667.59;;;15.40;87.95
17855;BME280;9053;53.358;6.382;2022-08-07T00:41:10;102671.78;;;15.35;87.83
17855;BME280;9053;53.358;6.382;2022-08-07T00:43:40;102671.63;;;15.32;87.87
17855;BME280;9053;53.358;6.382;2022-08-07T00:46:27;102677.69;;;15.29;88.14
17855;BME280;9053;53.358;6.382;2022-08-07T00:48:59;102667.09;;;15.29;88.03
17855;BME280;9053;53.358;6.382;2022-08-07T00:51:29;102661.75;;;15.28;87.96
17855;BME280;9053;53.358;6.382;2022-08-07T00:54:21;102658.97;;;15.25;88.09
17855;BME280;9053;53.358;6.382;2022-08-07T00:56:51;102662.44;;;15.24;88.22
17855;BME280;9053;53.358;6.382;2022-08-07T00:59:20;102672.06;;;15.22;88.48
17855;BME280;9053;53.358;6.382;2022-08-07T01:02:01;102668.31;;;15.17;88.55
17855;BME280;9053;53.358;6.382;2022-08-07T01:04:39;102658.47;;;15.14;88.70
17855;BME280;9053;53.358;6.382;2022-08-07T01:07:09;102655.78;;;15.12;88.84
17855;BME280;9053;53.358;6.382;2022-08-07T01:09:41;102665.41;;;15.10;88.97
17855;BME280;9053;53.358;6.382;2022-08-07T01:12:31;102660.94;;;15.09;88.96
17855;BME280;9053;53.358;6.382;2022-08-07T01:15:00;102651.25;;;15.10;88.92
17855;BME280;9053;53.358;6.382;2022-08-07T01:17:31;102650.34;;;15.09;89.08
17855;BME280;9053;53.358;6.382;2022-08-07T01:20:06;102657.31;;;15.07;89.07
17855;BME280;9053;53.358;6.382;2022-08-07T01:22:45;102658.00;;;15.03;89.16
17855;BME280;9053;53.358;6.382;2022-08-07T01:25:34;102657.13;;;15.03;89.28
17855;BME280;9053;53.358;6.382;2022-08-07T01:28:21;102658.78;;;15.01;89.13
17855;BME280;9053;53.358;6.382;2022-08-07T01:30:53;102656.22;;;15.02;89.22
17855;BME280;9053;53.358;6.382;2022-08-07T01:33:24;102655.22;;;15.00;89.34
17855;BME280;9053;53.358;6.382;2022-08-07T01:36:13;102654.38;;;15.01;89.29
17855;BME280;9053;53.358;6.382;2022-08-07T01:38:45;102646.50;;;15.03;89.18
17855;BME280;9053;53.358;6.382;2022-08-07T01:41:15;102646.44;;;15.01;89.20
17855;BME280;9053;53.358;6.382;2022-08-07T01:43:52;102642.69;;;14.96;89.14
17855;BME280;9053;53.358;6.382;2022-08-07T01:46:21;102649.50;;;14.91;89.69
17855;BME280;9053;53.358;6.382;2022-08-07T01:48:52;102648.88;;;14.97;89.72
17855;BME280;9053;53.358;6.382;2022-08-07T01:51:25;102640.09;;;14.98;89.57
17855;BME280;9053;53.358;6.382;2022-08-07T01:54:18;102642.53;;;14.93;89.38
17855;BME280;9053;53.358;6.382;2022-08-07T01:57:03;102637.94;;;14.89;89.47
17855;BME280;9053;53.358;6.382;2022-08-07T01:59:47;102636.13;;;14.88;89.53
17855;BME280;9053;53.358;6.382;2022-08-07T02:02:21;102634.34;;;14.87;89.55
17855;BME280;9053;53.358;6.382;2022-08-07T02:05:13;102637.00;;;14.87;89.72
17855;BME280;9053;53.358;6.382;2022-08-07T02:08:08;102636.69;;;14.81;89.78
17855;BME280;9053;53.358;6.382;2022-08-07T02:10:42;102629.72;;;14.83;89.98
17855;BME280;9053;53.358;6.382;2022-08-07T02:13:21;102642.00;;;14.81;89.86
17855;BME280;9053;53.358;6.382;2022-08-07T02:16:10;102629.59;;;14.80;89.84
17855;BME280;9053;53.358;6.382;2022-08-07T02:18:41;102631.19;;;14.76;89.93
17855;BME280;9053;53.358;6.382;2022-08-07T02:21:12;102629.47;;;14.77;89.92
17855;BME280;9053;53.358;6.382;2022-08-07T02:23:43;102625.84;;;14.75;89.76
17855;BME280;9053;53.358;6.382;2022-08-07T02:26:17;102625.66;;;14.71;89.96
17855;BME280;9053;53.358;6.382;2022-08-07T02:28:59;102622.91;;;14.68;90.02
17855;BME280;9053;53.358;6.382;2022-08-07T02:31:38;102624.72;;;14.69;90.09
17855;BME280;9053;53.358;6.382;2022-08-07T02:34:13;102621.09;;;14.67;90.02
17855;BME280;9053;53.358;6.382;2022-08-07T02:36:43;102625.50;;;14.67;89.83
17855;BME280;9053;53.358;6.382;2022-08-07T02:39:14;102627.22;;;14.66;89.86
17855;BME280;9053;53.358;6.382;2022-08-07T02:42:07;102626.31;;;14.66;89.77
17855;BME280;9053;53.358;6.382;2022-08-07T02:44:42;102627.06;;;14.63;90.02
17855;BME280;9053;53.358;6.382;2022-08-07T02:47:14;102620.03;;;14.64;89.99
17855;BME280;9053;53.358;6.382;2022-08-07T02:49:49;102623.31;;;14.58;90.06
17855;BME280;9053;53.358;6.382;2022-08-07T02:52:25;102615.31;;;14.57;90.18
17855;BME280;9053;53.358;6.382;2022-08-07T02:54:58;102618.00;;;14.58;90.19
17855;BME280;9053;53.358;6.382;2022-08-07T02:57:31;102618.91;;;14.59;90.08
17855;BME280;9053;53.358;6.382;2022-08-07T03:00:05;102621.56;;;14.59;90.12
17855;BME280;9053;53.358;6.382;2022-08-07T03:02:38;102616.22;;;14.57;90.29
17855;BME280;9053;53.358;6.382;2022-08-07T03:05:20;102614.38;;;14.56;90.33
17855;BME280;9053;53.358;6.382;2022-08-07T03:07:51;102614.38;;;14.56;90.41
17855;BME280;9053;53.358;6.382;2022-08-07T03:10:34;102614.38;;;14.56;90.23
17855;BME280;9053;53.358;6.382;2022-08-07T03:13:15;102616.13;;;14.56;90.28
17855;BME280;9053;53.358;6.382;2022-08-07T03:15:45;102617.97;;;14.57;90.30
17855;BME280;9053;53.358;6.382;2022-08-07T03:18:22;102618.88;;;14.57;90.22
17855;BME280;9053;53.358;6.382;2022-08-07T03:21:01;102607.22;;;14.54;90.03
17855;BME280;9053;53.358;6.382;2022-08-07T03:23:34;102623.00;;;14.52;89.82
17855;BME280;9053;53.358;6.382;2022-08-07T03:26:27;102622.78;;;14.47;89.75
17855;BME280;9053;53.358;6.382;2022-08-07T03:29:02;102616.47;;;14.44;89.74
17855;BME280;9053;53.358;6.382;2022-08-07T03:31:36;102620.78;;;14.42;89.60
17855;BME280;9053;53.358;6.382;2022-08-07T03:34:11;102617.69;;;14.33;89.50
17855;BME280;9053;53.358;6.382;2022-08-07T03:36:47;102620.34;;;14.33;89.52
17855;BME280;9053;53.358;6.382;2022-08-07T03:39:19;102617.56;;;14.29;89.36
17855;BME280;9053;53.358;6.382;2022-08-07T03:42:09;102618.31;;;14.27;89.35
17855;BME280;9053;53.358;6.382;2022-08-07T03:44:42;102620.47;;;14.16;89.34
17855;BME280;9053;53.358;6.382;2022-08-07T03:47:23;102622.34;;;14.19;89.37
17855;BME280;9053;53.358;6.382;2022-08-07T03:49:55;102616.00;;;14.15;89.24
17855;BME280;9053;53.358;6.382;2022-08-07T03:52:27;102614.06;;;14.11;89.37
17855;BME280;9053;53.358;6.382;2022-08-07T03:54:56;102611.53;;;14.14;89.50
17855;BME280;9053;53.358;6.382;2022-08-07T03:57:33;102617.50;;;14.10;89.67
17855;BME280;9053;53.358;6.382;2022-08-07T04:00:26;102622.66;;;14.07;89.69
17855;BME280;9053;53.358;6.382;2022-08-07T04:03:00;102614.81;;;14.09;89.70
17855;BME280;9053;53.358;6.382;2022-08-07T04:05:30;102615.53;;;14.06;89.88
17855;BME280;9053;53.358;6.382;2022-08-07T04:08:08;102619.94;;;14.05;89.82
17855;BME280;9053;53.358;6.382;2022-08-07T04:10:41;102612.09;;;14.07;89.85
17855;BME280;9053;53.358;6.382;2022-08-07T04:13:31;102613.88;;;14.08;89.79
17855;BME280;9053;53.358;6.382;2022-08-07T04:16:24;102613.88;;;14.08;89.82
17855;BME280;9053;53.358;6.382;2022-08-07T04:18:57;102618.28;;;14.07;89.90
17855;BME280;9053;53.358;6.382;2022-08-07T04:21:38;102611.19;;;14.06;89.98
17855;BME280;9053;53.358;6.382;2022-08-07T04:24:25;102613.75;;;14.05;90.11
17855;BME280;9053;53.358;6.382;2022-08-07T04:27:04;102617.16;;;14.02;90.14
17855;BME280;9053;53.358;6.382;2022-08-07T04:29:45;102617.16;;;14.02;90.37
17855;BME280;9053;53.358;6.382;2022-08-07T04:32:31;102621.75;;;14.06;90.30
17855;BME280;9053;53.358;6.382;2022-08-07T04:35:01;102618.19;;;14.06;90.31
17855;BME280;9053;53.358;6.382;2022-08-07T04:37:36;102623.47;;;14.06;90.30
17855;BME280;9053;53.358;6.382;2022-08-07T04:40:26;102621.69;;;14.05;90.21
17855;BME280;9053;53.358;6.382;2022-08-07T04:42:57;102619.03;;;14.05;90.78
17855;BME280;9053;53.358;6.382;2022-08-07T04:45:33;102615.53;;;14.06;90.96
17855;BME280;9053;53.358;6.382;2022-08-07T04:48:27;102625.06;;;14.20;91.19
17855;BME280;9053;53.358;6.382;2022-08-07T04:51:00;102621.59;;;14.41;91.46
17855;BME280;9053;53.358;6.382;2022-08-07T04:53:36;102621.19;;;14.51;91.66
17855;BME280;9053;53.358;6.382;2022-08-07T04:56:29;102617.69;;;14.70;92.08
17855;BME280;9053;53.358;6.382;2022-08-07T04:59:25;102618.13;;;15.00;91.73
17855;BME280;9053;53.358;6.382;2022-08-07T05:02:16;102605.50;;;15.35;90.74
17855;BME280;9053;53.358;6.382;2022-08-07T05:04:52;102611.19;;;15.65;89.75
17855;BME280;9053;53.358;6.382;2022-08-07T05:07:28;102608.03;;;15.96;88.58
17855;BME280;9053;53.358;6.382;2022-08-07T05:10:03;102609.06;;;16.22;87.18
17855;BME280;9053;53.358;6.382;2022-08-07T05:12:38;102614.13;;;16.39;86.85
17855;BME280;9053;53.358;6.382;2022-08-07T05:15:25;102616.84;;;16.64;85.77
17855;BME280;9053;53.358;6.382;2022-08-07T05:17:58;102612.38;;;16.86;85.38
17855;BME280;9053;53.358;6.382;2022-08-07T05:20:37;102607.91;;;17.11;84.61
17855;BME280;9053;53.358;6.382;2022-08-07T05:23:09;102607.63;;;17.28;83.06
17855;BME280;9053;53.358;6.382;2022-08-07T05:25:41;102608.47;;;17.53;82.79
17855;BME280;9053;53.358;6.382;2022-08-07T05:28:32;102602.53;;;17.87;82.32
17855;BME280;9053;53.358;6.382;2022-08-07T05:31:06;102608.75;;;18.16;81.63
17855;BME280;9053;53.358;6.382;2022-08-07T05:33:39;102617.19;;;18.32;81.10
17855;BME280;9053;53.358;6.382;2022-08-07T05:36:32;102615.03;;;18.47;80.72
17855;BME280;9053;53.358;6.382;2022-08-07T05:39:04;102611.66;;;18.54;79.99
17855;BME280;9053;53.358;6.382;2022-08-07T05:41:55;102620.47;;;18.82;79.32
17855;BME280;9053;53.358;6.382;2022-08-07T05:44:29;102614.88;;;19.05;78.92
17855;BME280;9053;53.358;6.382;2022-08-07T05:46:59;102611.09;;;19.30;78.45
17855;BME280;9053;53.358;6.382;2022-08-07T05:49:44;102624.09;;;19.51;77.91
17855;BME280;9053;53.358;6.382;2022-08-07T05:52:18;102624.00;;;19.82;77.93
17855;BME280;9053;53.358;6.382;2022-08-07T05:54:57;102631.63;;;20.03;76.94
17855;BME280;9053;53.358;6.382;2022-08-07T05:57:36;102625.47;;;20.07;77.55
17855;BME280;9053;53.358;6.382;2022-08-07T06:00:10;102624.88;;;20.19;76.85
17855;BME280;9053;53.358;6.382;2022-08-07T06:02:44;102626.88;;;20.29;76.57
17855;BME280;9053;53.358;6.382;2022-08-07T06:05:15;102635.34;;;20.51;75.90
17855;BME280;9053;53.358;6.382;2022-08-07T06:07:56;102632.13;;;20.64;75.99
17855;BME280;9053;53.358;6.382;2022-08-07T06:10:46;102641.13;;;20.71;75.88
17855;BME280;9053;53.358;6.382;2022-08-07T06:13:20;102639.75;;;20.91;75.60
17855;BME280;9053;53.358;6.382;2022-08-07T06:16:09;102641.84;;;21.06;74.87
17855;BME280;9053;53.358;6.382;2022-08-07T06:18:39;102634.94;;;21.17;74.68
17855;BME280;9053;53.358;6.382;2022-08-07T06:21:21;102634.47;;;21.40;74.01
17855;BME280;9053;53.358;6.382;2022-08-07T06:24:13;102635.59;;;21.53;74.21
17855;BME280;9053;53.358;6.382;2022-08-07T06:27:03;102629.59;;;21.68;73.23
17855;BME280;9053;53.358;6.382;2022-08-07T06:29:33;102642.28;;;21.81;72.88
17855;BME280;9053;53.358;6.382;2022-08-07T06:32:04;102639.66;;;21.82;72.56
17855;BME280;9053;53.358;6.382;2022-08-07T06:34:38;102637.09;;;21.90;72.08
17855;BME280;9053;53.358;6.382;2022-08-07T06:37:10;102638.94;;;21.96;71.88
17855;BME280;9053;53.358;6.382;2022-08-07T06:39:48;102635.44;;;22.01;71.49
17855;BME280;9053;53.358;6.382;2022-08-07T06:42:38;102630.25;;;22.11;72.19
17855;BME280;9053;53.358;6.382;2022-08-07T06:45:12;102631.31;;;22.20;71.78
17855;BME280;9053;53.358;6.382;2022-08-07T06:47:44;102626.25;;;22.43;71.18
17855;BME280;9053;53.358;6.382;2022-08-07T06:50:24;102627.28;;;22.55;70.30
17855;BME280;9053;53.358;6.382;2022-08-07T06:52:55;102623.81;;;22.63;69.44
17855;BME280;9053;53.358;6.382;2022-08-07T06:55:32;102625.75;;;22.77;70.07
17855;BME280;9053;53.358;6.382;2022-08-07T06:58:19;102611.44;;;22.75;68.94
17855;BME280;9053;53.358;6.382;2022-08-07T07:00:54;102615.97;;;22.79;68.49
17855;BME280;9053;53.358;6.382;2022-08-07T07:03:24;102616.88;;;22.81;68.21
17855;BME280;9053;53.358;6.382;2022-08-07T07:06:13;102614.22;;;22.84;68.95
17855;BME280;9053;53.358;6.382;2022-08-07T07:08:49;102619.72;;;22.96;68.74
17855;BME280;9053;53.358;6.382;2022-08-07T07:11:22;102612.78;;;23.15;68.60
17855;BME280;9053;53.358;6.382;2022-08-07T07:14:12;102612.13;;;23.42;68.04
17855;BME280;9053;53.358;6.382;2022-08-07T07:16:46;102611.31;;;23.51;66.54
17855;BME280;9053;53.358;6.382;2022-08-07T07:19:20;102605.19;;;23.67;65.96
17855;BME280;9053;53.358;6.382;2022-08-07T07:22:11;102600.84;;;23.86;66.08
17855;BME280;9053;53.358;6.382;2022-08-07T07:25:01;102605.47;;;24.04;65.71
17855;BME280;9053;53.358;6.382;2022-08-07T07:27:55;102610.03;;;24.22;65.35
17855;BME280;9053;53.358;6.382;2022-08-07T07:30:34;102604.75;;;24.40;64.93
17855;BME280;9053;53.358;6.382;2022-08-07T07:33:06;102607.50;;;24.54;64.62
17855;BME280;9053;53.358;6.382;2022-08-07T07:35:38;102602.16;;;24.67;64.53
17855;BME280;9053;53.358;6.382;2022-08-07T07:38:29;102610.31;;;24.80;63.51
17855;BME280;9053;53.358;6.382;2022-08-07T07:41:02;102606.69;;;24.78;63.58
17855;BME280;9053;53.358;6.382;2022-08-07T07:44:51;102604.94;;;24.99;63.12
17855;BME280;9053;53.358;6.382;2022-08-07T07:47:21;102600.47;;;25.05;62.90
17855;BME280;9053;53.358;6.382;2022-08-07T07:49:53;102613.03;;;25.10;62.84
17855;BME280;9053;53.358;6.382;2022-08-07T07:52:43;102604.06;;;24.95;61.97
17855;BME280;9053;53.358;6.382;2022-08-07T07:55:13;102599.56;;;24.99;62.15
17855;BME280;9053;53.358;6.382;2022-08-07T07:57:48;102597.78;;;25.13;62.71
17855;BME280;9053;53.358;6.382;2022-08-07T08:00:26;102599.66;;;25.25;62.17
17855;BME280;9053;53.358;6.382;2022-08-07T08:03:01;102598.69;;;25.11;61.49
17855;BME280;9053;53.358;6.382;2022-08-07T08:05:38;102598.69;;;25.11;62.21
17855;BME280;9053;53.358;6.382;2022-08-07T08:08:21;102588.81;;;25.11;61.87
17855;BME280;9053;53.358;6.382;2022-08-07T08:11:02;102593.34;;;25.21;61.63
17855;BME280;9053;53.358;6.382;2022-08-07T08:13:34;102598.72;;;25.17;61.84
17855;BME280;9053;53.358;6.382;2022-08-07T08:16:23;102583.47;;;25.20;61.41
17855;BME280;9053;53.358;6.382;2022-08-07T08:18:56;102585.28;;;25.46;61.84
17855;BME280;9053;53.358;6.382;2022-08-07T08:21:47;102587.06;;;25.39;61.08
17855;BME280;9053;53.358;6.382;2022-08-07T08:24:35;102582.56;;;25.47;61.46
17855;BME280;9053;53.358;6.382;2022-08-07T08:27:37;102587.97;;;25.54;61.54
17855;BME280;9053;53.358;6.382;2022-08-07T08:30:22;102583.47;;;25.63;61.17
17855;BME280;9053;53.358;6.382;2022-08-07T08:32:56;102585.25;;;25.69;61.13
17855;BME280;9053;53.358;6.382;2022-08-07T08:35:28;102579.88;;;25.57;60.91
17855;BME280;9053;53.358;6.382;2022-08-07T08:38:12;102581.69;;;25.32;61.56
17855;BME280;9053;53.358;6.382;2022-08-07T08:40:46;102583.47;;;25.20;62.01
17855;BME280;9053;53.358;6.382;2022-08-07T08:43:19;102580.78;;;25.40;62.36
17855;BME280;9053;53.358;6.382;2022-08-07T08:46:08;102582.59;;;25.55;61.82
17855;BME280;9053;53.358;6.382;2022-08-07T08:48:45;102587.94;;;25.67;61.94
17855;BME280;9053;53.358;6.382;2022-08-07T08:51:22;102591.53;;;25.50;61.12
17855;BME280;9053;53.358;6.382;2022-08-07T08:54:15;102584.38;;;25.27;61.36
17855;BME280;9053;53.358;6.382;2022-08-07T08:56:50;102581.63;;;25.07;61.92
17855;BME280;9053;53.358;6.382;2022-08-07T08:59:24;102577.13;;;24.95;61.80
17855;BME280;9053;53.358;6.382;2022-08-07T09:01:55;102570.84;;;24.89;62.33
17855;BME280;9053;53.358;6.382;2022-08-07T09:04:40;102582.50;;;24.86;62.58
17855;BME280;9053;53.358;6.382;2022-08-07T09:07:13;102575.34;;;24.85;62.64
17855;BME280;9053;53.358;6.382;2022-08-07T09:09:52;102578.00;;;24.80;62.57
17855;BME280;9053;53.358;6.382;2022-08-07T09:12:27;102578.91;;;24.89;62.58
17855;BME280;9053;53.358;6.382;2022-08-07T09:15:11;102581.63;;;24.95;62.90
17855;BME280;9053;53.358;6.382;2022-08-07T09:18:10;102568.16;;;24.90;62.25
17855;BME280;9053;53.358;6.382;2022-08-07T09:20:53;102569.94;;;24.91;62.58
17855;BME280;9053;53.358;6.382;2022-08-07T09:23:30;102563.69;;;25.03;63.09
17855;BME280;9053;53.358;6.382;2022-08-07T09:26:22;102571.75;;;25.04;62.55
17855;BME280;9053;53.358;6.382;2022-08-07T09:28:54;102571.75;;;24.95;61.84
17855;BME280;9053;53.358;6.382;2022-08-07T09:31:50;102574.38;;;24.71;62.12
17855;BME280;9053;53.358;6.382;2022-08-07T09:34:23;102580.66;;;24.67;62.42
17855;BME280;9053;53.358;6.382;2022-08-07T09:37:00;102581.56;;;24.59;62.73
17855;BME280;9053;53.358;6.382;2022-08-07T09:39:37;102582.41;;;24.52;63.09
17855;BME280;9053;53.358;6.382;2022-08-07T09:42:26;102575.13;;;24.33;62.72
17855;BME280;9053;53.358;6.382;2022-08-07T09:45:01;102567.91;;;24.23;63.01
17855;BME280;9053;53.358;6.382;2022-08-07T09:47:58;102578.59;;;24.07;63.87
17855;BME280;9053;53.358;6.382;2022-08-07T09:50:45;102584.69;;;23.74;64.52
17855;BME280;9053;53.358;6.382;2022-08-07T09:53:23;102573.09;;;23.86;65.54
17855;BME280;9053;53.358;6.382;2022-08-07T10:00:19;102562.53;;;24.23;64.92
17855;BME280;9053;53.358;6.382;2022-08-07T10:06:28;102552.84;;;24.52;63.59
17855;BME280;9053;53.358;6.382;2022-08-07T10:09:17;102553.75;;;24.60;63.63
17855;BME280;9053;53.358;6.382;2022-08-07T10:12:16;102551.03;;;24.59;63.71
17855;BME280;9053;53.358;6.382;2022-08-07T10:15:21;102543.88;;;24.59;63.37
17855;BME280;9053;53.358;6.382;2022-08-07T10:21:17;102524.13;;;24.56;63.32
17855;BME280;9053;53.358;6.382;2022-08-07T10:24:23;102527.75;;;24.63;62.39
17855;BME280;9053;53.358;6.382;2022-08-07T10:27:09;102510.75;;;24.77;62.59
17855;BME280;9053;53.358;6.382;2022-08-07T10:30:04;102514.31;;;24.81;61.63
17855;BME280;9053;53.358;6.382;2022-08-07T10:35:49;102521.53;;;24.90;62.77
17855;BME280;9053;53.358;6.382;2022-08-07T10:38:46;102514.34;;;25.02;62.28
17855;BME280;9053;53.358;6.382;2022-08-07T10:41:24;102520.63;;;25.11;62.08
17855;BME280;9053;53.358;6.382;2022-08-07T10:44:18;102513.44;;;25.22;62.46
17855;BME280;9053;53.358;6.382;2022-08-07T10:47:14;102512.56;;;25.35;62.27
17855;BME280;9053;53.358;6.382;2022-08-07T10:50:13;102510.75;;;25.37;61.85
17855;BME280;9053;53.358;6.382;2022-08-07T10:52:58;102511.63;;;25.53;61.44
17855;BME280;9053;53.358;6.382;2022-08-07T10:55:42;102507.16;;;25.49;61.28
17855;BME280;9053;53.358;6.382;2022-08-07T10:58:22;102506.22;;;25.61;61.23
17855;BME280;9053;53.358;6.382;2022-08-07T11:01:15;102500.84;;;25.58;61.23
17855;BME280;9053;53.358;6.382;2022-08-07T11:03:55;102499.06;;;25.49;62.15
17855;BME280;9053;53.358;6.382;2022-08-07T11:06:58;102494.56;;;25.51;61.53
17855;BME280;9053;53.358;6.382;2022-08-07T11:09:45;102490.09;;;25.53;61.51
17855;BME280;9053;53.358;6.382;2022-08-07T11:12:39;102491.88;;;25.37;61.04
17855;BME280;9053;53.358;6.382;2022-08-07T11:15:19;102484.75;;;25.22;61.57
17855;BME280;9053;53.358;6.382;2022-08-07T11:18:01;102483.84;;;25.26;60.43
17855;BME280;9053;53.358;6.382;2022-08-07T11:20:41;102478.44;;;25.16;60.50
17855;BME280;9053;53.358;6.382;2022-08-07T11:23:21;102475.75;;;25.08;60.95
17855;BME280;9053;53.358;6.382;2022-08-07T11:26:07;102483.81;;;24.91;61.58
17855;BME280;9053;53.358;6.382;2022-08-07T11:28:44;102476.63;;;24.63;62.71
17855;BME280;9053;53.358;6.382;2022-08-07T11:31:26;102482.84;;;24.37;63.98
17855;BME280;9053;53.358;6.382;2022-08-07T11:34:07;102474.72;;;24.28;64.73
17855;BME280;9053;53.358;6.382;2022-08-07T11:36:48;102472.91;;;24.21;64.67
17855;BME280;9053;53.358;6.382;2022-08-07T11:39:39;102476.44;;;23.96;64.72
17855;BME280;9053;53.358;6.382;2022-08-07T11:42:37;102483.56;;;23.91;65.02
17855;BME280;9053;53.358;6.382;2022-08-07T11:45:17;102479.97;;;23.88;65.34
17855;BME280;9053;53.358;6.382;2022-08-07T11:48:20;102480.81;;;23.81;65.11
17855;BME280;9053;53.358;6.382;2022-08-07T11:51:16;102479.03;;;23.81;65.61
17855;BME280;9053;53.358;6.382;2022-08-07T11:54:29;102478.94;;;23.70;65.75
17855;BME280;9053;53.358;6.382;2022-08-07T11:57:15;102474.47;;;23.66;65.84
17855;BME280;9053;53.358;6.382;2022-08-07T12:00:09;102480.59;;;23.48;66.09
17855;BME280;9053;53.358;6.382;2022-08-07T12:06:33;102471.72;;;23.63;65.78
17855;BME280;9053;53.358;6.382;2022-08-07T12:09:23;102469.03;;;23.63;66.54
17855;BME280;9053;53.358;6.382;2022-08-07T12:12:03;102469.16;;;23.77;65.08
17855;BME280;9053;53.358;6.382;2022-08-07T12:14:54;102465.66;;;23.95;65.42
17855;BME280;9053;53.358;6.382;2022-08-07T12:17:32;102469.28;;;24.05;65.03
17855;BME280;9053;53.358;6.382;2022-08-07T12:20:28;102463.94;;;24.15;64.60
17855;BME280;9053;53.358;6.382;2022-08-07T12:23:22;102461.28;;;24.34;64.23
17855;BME280;9053;53.358;6.382;2022-08-07T12:26:24;102455.97;;;24.46;63.38
17855;BME280;9053;53.358;6.382;2022-08-07T12:29:18;102459.56;;;24.56;62.28
17855;BME280;9053;53.358;6.382;2022-08-07T12:32:14;102460.47;;;24.49;62.05
17855;BME280;9053;53.358;6.382;2022-08-07T12:34:48;102458.59;;;24.34;62.52
17855;BME280;9053;53.358;6.382;2022-08-07T12:37:23;102460.41;;;24.38;62.93
17855;BME280;9053;53.358;6.382;2022-08-07T12:40:18;102462.22;;;24.37;61.94
17855;BME280;9053;53.358;6.382;2022-08-07T12:43:10;102458.66;;;24.45;61.76
17855;BME280;9053;53.358;6.382;2022-08-07T12:46:12;102459.59;;;24.60;61.46
17855;BME280;9053;53.358;6.382;2022-08-07T12:49:07;102451.53;;;24.60;61.01
17855;BME280;9053;53.358;6.382;2022-08-07T12:52:04;102444.31;;;24.52;59.99
17855;BME280;9053;53.358;6.382;2022-08-07T12:54:50;102462.16;;;24.24;60.48
17855;BME280;9053;53.358;6.382;2022-08-07T12:57:31;102448.72;;;24.21;60.20
17855;BME280;9053;53.358;6.382;2022-08-07T13:00:26;102450.50;;;24.22;61.08
17855;BME280;9053;53.358;6.382;2022-08-07T13:03:11;102454.06;;;24.13;60.24
17855;BME280;9053;53.358;6.382;2022-08-07T13:06:20;102446.00;;;24.11;60.47
17855;BME280;9053;53.358;6.382;2022-08-07T13:08:59;102449.59;;;24.04;60.69
17855;BME280;9053;53.358;6.382;2022-08-07T13:12:02;102447.81;;;24.09;61.28
17855;BME280;9053;53.358;6.382;2022-08-07T13:14:47;102451.38;;;24.11;60.49
17855;BME280;9053;53.358;6.382;2022-08-07T13:17:29;102445.16;;;24.31;61.73
17855;BME280;9053;53.358;6.382;2022-08-07T13:20:12;102443.38;;;24.44;60.64
17855;BME280;9053;53.358;6.382;2022-08-07T13:22:55;102446.13;;;24.48;62.07
17855;BME280;9053;53.358;6.382;2022-08-07T13:25:53;102443.44;;;24.48;61.78
17855;BME280;9053;53.358;6.382;2022-08-07T13:28:29;102446.94;;;24.36;61.68
17855;BME280;9053;53.358;6.382;2022-08-07T13:31:09;102440.69;;;24.39;61.60
17855;BME280;9053;53.358;6.382;2022-08-07T13:33:47;102441.59;;;24.43;62.41
17855;BME280;9053;53.358;6.382;2022-08-07T13:36:41;102429.97;;;24.54;62.08
17855;BME280;9053;53.358;6.382;2022-08-07T13:39:24;102437.16;;;24.69;60.88
17855;BME280;9053;53.358;6.382;2022-08-07T13:42:17;102431.81;;;24.52;61.54
17855;BME280;9053;53.358;6.382;2022-08-07T13:44:52;102427.31;;;24.56;60.78
17855;BME280;9053;53.358;6.382;2022-08-07T13:47:44;102433.59;;;24.63;61.98
17855;BME280;9053;53.358;6.382;2022-08-07T13:50:37;102425.50;;;24.61;61.72
17855;BME280;9053;53.358;6.382;2022-08-07T13:53:28;102426.38;;;24.37;59.78
17855;BME280;9053;53.358;6.382;2022-08-07T13:56:23;102426.34;;;24.34;60.92
17855;BME280;9053;53.358;6.382;2022-08-07T13:59:08;102422.78;;;24.38;61.49
17855;BME280;9053;53.358;6.382;2022-08-07T14:01:50;102425.41;;;24.12;60.89
17855;BME280;9053;53.358;6.382;2022-08-07T14:04:32;102420.00;;;24.03;61.13
17855;BME280;9053;53.358;6.382;2022-08-07T14:07:18;102411.09;;;24.24;62.02
17855;BME280;9053;53.358;6.382;2022-08-07T14:09:54;102415.59;;;24.31;61.92
17855;BME280;9053;53.358;6.382;2022-08-07T14:12:49;102416.50;;;24.36;61.82
17855;BME280;9053;53.358;6.382;2022-08-07T14:15:30;102424.53;;;24.14;62.02
17855;BME280;9053;53.358;6.382;2022-08-07T14:18:04;102427.19;;;24.10;62.69
17855;BME280;9053;53.358;6.382;2022-08-07T14:21:01;102417.38;;;24.26;62.75
17855;BME280;9053;53.358;6.382;2022-08-07T14:23:39;102418.25;;;24.12;62.30
17855;BME280;9053;53.358;6.382;2022-08-07T14:26:36;102420.94;;;24.09;62.71
17855;BME280;9053;53.358;6.382;2022-08-07T14:29:24;102424.50;;;24.10;62.77
17855;BME280;9053;53.358;6.382;2022-08-07T14:32:17;102410.19;;;24.09;62.74
17855;BME280;9053;53.358;6.382;2022-08-07T14:34:51;102409.25;;;24.06;62.54